Hovedside
METAR-TAF:

METAR-TAF

Lufthavner :

Kalmar, Sverige

Kalmar lufthavn

breddegrad: 56-44N, lengdegrad: 016-18E, høyde over havet: 16 m

Gjeldene værobservasjon

Denne rapporten ble laget for 17 minutter siden, klokken 22:20 UTC
Vind 4 kt fra Nord
Temperatur 14°C
Luftfuktighet 100%
Trykk 1011 hPa
Sikt 10 km eller mer

METAR: ESMQ 242220Z AUTO 35004KT 9999 NCD 14/14 Q1011

Tid: 00:37 (22:37 UTC)

Varsel

Denne rapporten ble laget for 5 timer og 7 minutter siden, klokken 17:30 UTC
Varsel gyldig fra 24. klokken 18 UTC til 24. klokken 20 UTC
Vind 10 kt fra Nord-nordøst
Sikt 10 km eller mer
ingen skyer under 1500 m og ingen bygeskyer

TAF: ESMQ 241730Z 2418/2420 03010KT CAVOK

Værobservasjoner og værvarsel for over 4000 flyplasser (METAR- og TAF-rapporter).

Tilgjengelige stasjoner er representert av de røde og gule prikkene på kartet.

Hold musepekeren over prikken for å se navnet på stasjonen.

Klikk så for å se værobservasjoner og -varsler.

For å forandre kartet kan du klikke på den grønne knappen med svart kryss for å zoome inn, på den grønne knappen med strek for å zoome ut, eller på de grønne pilene for å se tilstøtende kart.


METAR-TAF: